createdAt,value
2022-08-04T00:01:41.412Z,74.90
2022-08-04T00:04:11.290Z,75.20
2022-08-04T00:06:37.940Z,75.20
2022-08-04T00:09:10.107Z,75.20
2022-08-04T00:11:38.779Z,74.90
2022-08-04T00:14:10.826Z,75.10
2022-08-04T00:16:38.868Z,74.90
2022-08-04T00:19:24.571Z,75.40
2022-08-04T00:22:02.826Z,75.20
2022-08-04T00:24:33.902Z,75.30
2022-08-04T00:27:00.713Z,75.00
2022-08-04T00:29:27.673Z,75.20
2022-08-04T00:31:57.472Z,75.20
2022-08-04T00:34:25.858Z,75.30
2022-08-04T00:36:53.358Z,75.60
2022-08-04T00:39:20.750Z,75.70
2022-08-04T00:41:56.501Z,75.80
2022-08-04T00:44:46.574Z,75.60
2022-08-04T00:47:21.241Z,76.00
2022-08-04T00:49:59.001Z,76.00
2022-08-04T00:52:44.239Z,76.20
2022-08-04T00:55:20.145Z,76.30
2022-08-04T00:58:03.450Z,76.30
2022-08-04T01:00:37.114Z,76.20
2022-08-04T01:03:30.188Z,76.30
2022-08-04T01:06:21.772Z,76.30
2022-08-04T01:08:59.504Z,76.30
2022-08-04T01:11:26.135Z,76.30
2022-08-04T01:14:17.070Z,76.30
2022-08-04T01:16:52.346Z,76.50
2022-08-04T01:19:37.812Z,76.60
2022-08-04T01:22:16.400Z,76.80
2022-08-04T01:25:02.356Z,76.70
2022-08-04T01:27:50.287Z,76.70
2022-08-04T01:30:17.138Z,76.70
2022-08-04T01:32:56.912Z,76.80
2022-08-04T01:35:49.903Z,76.70
2022-08-04T01:38:21.334Z,76.70
2022-08-04T01:40:51.898Z,76.70
2022-08-04T01:43:19.155Z,76.70
2022-08-04T01:45:49.682Z,76.70
2022-08-04T01:48:17.104Z,76.80
2022-08-04T01:50:45.074Z,76.80
2022-08-04T01:53:12.063Z,76.70
2022-08-04T01:55:51.893Z,76.70
2022-08-04T01:58:21.932Z,76.70
2022-08-04T02:00:56.539Z,77.40
2022-08-04T02:03:23.455Z,76.70
2022-08-04T02:06:39.278Z,76.80
2022-08-04T02:09:13.767Z,76.80
2022-08-04T02:11:41.478Z,76.80
2022-08-04T02:14:14.278Z,76.80
2022-08-04T02:16:52.548Z,76.60
2022-08-04T02:19:39.436Z,76.60
2022-08-04T02:22:09.934Z,76.60
2022-08-04T02:24:42.432Z,76.70
2022-08-04T02:27:10.970Z,76.70
2022-08-04T02:29:43.572Z,76.80
2022-08-04T02:32:19.610Z,76.80
2022-08-04T02:34:53.632Z,76.90
2022-08-04T02:37:21.046Z,76.90
2022-08-04T02:39:49.676Z,76.80
2022-08-04T02:42:16.758Z,76.80
2022-08-04T02:44:43.570Z,76.80
2022-08-04T02:47:10.936Z,76.80
2022-08-04T02:49:37.659Z,77.40
2022-08-04T02:52:10.285Z,77.40
2022-08-04T02:54:39.416Z,76.70
2022-08-04T02:57:08.931Z,76.70
2022-08-04T02:59:48.506Z,76.80
2022-08-04T03:02:15.545Z,76.90
2022-08-04T03:04:45.284Z,76.80
2022-08-04T03:07:30.537Z,76.80
2022-08-04T03:10:10.657Z,76.80
2022-08-04T03:12:49.718Z,76.70
2022-08-04T03:15:35.637Z,76.60
2022-08-04T03:18:21.095Z,76.60
2022-08-04T03:21:06.687Z,76.30
2022-08-04T03:23:51.878Z,76.20
2022-08-04T03:26:30.775Z,76.20
2022-08-04T03:29:15.907Z,76.10
2022-08-04T03:32:21.603Z,76.20
2022-08-04T03:34:54.330Z,76.20
2022-08-04T03:37:47.035Z,76.20
2022-08-04T03:40:28.253Z,76.20
2022-08-04T03:43:58.000Z,76.20
2022-08-04T03:46:20.705Z,76.10
2022-08-04T03:48:59.679Z,76.10
2022-08-04T03:52:01.751Z,76.00
2022-08-04T03:54:31.151Z,76.10
2022-08-04T03:57:03.971Z,76.10
2022-08-04T03:59:49.262Z,76.10
2022-08-04T04:02:34.427Z,76.20
2022-08-04T04:05:16.171Z,76.10
2022-08-04T04:08:03.963Z,76.10
2022-08-04T04:10:38.435Z,76.10
2022-08-04T04:13:23.649Z,76.30
2022-08-04T04:16:07.807Z,76.20
2022-08-04T04:18:47.194Z,76.90
2022-08-04T04:21:13.864Z,76.20
2022-08-04T04:23:40.542Z,76.90
2022-08-04T04:26:19.171Z,76.30
2022-08-04T04:29:06.118Z,76.30
2022-08-04T04:31:33.640Z,76.30
2022-08-04T04:34:06.143Z,76.30
2022-08-04T04:36:32.827Z,76.30
2022-08-04T04:39:09.241Z,76.30
2022-08-04T04:41:38.768Z,76.40
2022-08-04T04:44:14.855Z,76.40
2022-08-04T04:46:44.437Z,76.40
2022-08-04T04:49:11.060Z,76.50
2022-08-04T04:51:42.299Z,76.50
2022-08-04T04:54:14.838Z,76.50
2022-08-04T04:56:45.718Z,76.50
2022-08-04T04:59:15.665Z,76.50
2022-08-04T05:01:52.337Z,76.60
2022-08-04T05:04:28.230Z,76.60
2022-08-04T05:07:13.700Z,76.70
2022-08-04T05:09:53.727Z,76.70
2022-08-04T05:14:35.739Z,76.60
2022-08-04T05:15:45.465Z,76.60
2022-08-04T05:18:14.327Z,76.70
2022-08-04T05:20:43.274Z,76.70
2022-08-04T05:23:13.546Z,76.70
2022-08-04T05:25:50.163Z,76.80
2022-08-04T05:28:39.894Z,76.60
2022-08-04T05:31:11.175Z,76.70
2022-08-04T05:33:37.799Z,76.70
2022-08-04T05:36:19.161Z,76.70
2022-08-04T05:38:51.101Z,76.60
2022-08-04T05:41:18.471Z,76.60
2022-08-04T05:43:45.815Z,76.60
2022-08-04T05:46:13.523Z,76.60
2022-08-04T05:48:40.691Z,76.60
2022-08-04T05:51:09.017Z,76.60
2022-08-04T05:53:35.783Z,76.60
2022-08-04T05:56:02.850Z,76.60
2022-08-04T05:58:30.736Z,76.50
2022-08-04T06:01:01.580Z,76.60
2022-08-04T06:03:29.830Z,76.50
2022-08-04T06:05:57.337Z,76.60
2022-08-04T06:08:24.504Z,76.60
2022-08-04T06:10:51.601Z,76.60
2022-08-04T06:13:47.884Z,76.90
2022-08-04T06:16:07.636Z,77.00
2022-08-04T06:19:59.392Z,77.00
2022-08-04T06:21:24.890Z,77.00
2022-08-04T06:23:53.715Z,77.10
2022-08-04T06:26:28.729Z,77.10
2022-08-04T06:28:56.344Z,77.00
2022-08-04T06:32:27.840Z,77.10
2022-08-04T06:34:30.951Z,77.10
2022-08-04T06:36:58.408Z,77.10
2022-08-04T06:39:25.679Z,77.20
2022-08-04T06:42:02.444Z,77.20
2022-08-04T06:44:40.790Z,77.20
2022-08-04T06:47:07.683Z,77.20
2022-08-04T06:51:23.502Z,77.30
2022-08-04T06:52:22.399Z,77.30
2022-08-04T06:54:50.493Z,77.30
2022-08-04T06:57:20.632Z,77.30
2022-08-04T06:59:56.023Z,77.40
2022-08-04T07:02:25.552Z,77.40
2022-08-04T07:04:52.855Z,77.40
2022-08-04T07:07:19.859Z,77.40
2022-08-04T07:10:00.952Z,77.50
2022-08-04T07:12:28.050Z,77.40
2022-08-04T07:14:55.291Z,78.30
2022-08-04T07:17:23.143Z,77.60
2022-08-04T07:19:56.312Z,77.40
2022-08-04T07:22:25.873Z,77.50
2022-08-04T07:24:56.867Z,77.50
2022-08-04T07:27:47.419Z,77.50
2022-08-04T07:30:11.391Z,77.50
2022-08-04T07:32:38.667Z,77.50
2022-08-04T07:35:07.134Z,77.60
2022-08-04T07:37:39.877Z,77.60
2022-08-04T07:40:07.392Z,77.60
2022-08-04T07:42:34.749Z,77.50
2022-08-04T07:45:01.514Z,77.60
2022-08-04T07:47:28.459Z,77.60
2022-08-04T07:49:57.575Z,77.60
2022-08-04T07:52:25.733Z,77.50
2022-08-04T07:54:53.272Z,77.70
2022-08-04T07:57:40.686Z,77.60
2022-08-04T08:00:08.435Z,77.60
2022-08-04T08:02:35.670Z,77.60
2022-08-04T08:05:02.553Z,77.60
2022-08-04T08:07:29.538Z,77.50
2022-08-04T08:09:56.402Z,77.60
2022-08-04T08:12:37.543Z,77.60
2022-08-04T08:15:10.743Z,77.50
2022-08-04T08:17:58.200Z,77.80
2022-08-04T08:20:29.091Z,77.70
2022-08-04T08:22:56.848Z,77.70
2022-08-04T08:25:23.602Z,77.60
2022-08-04T08:27:55.953Z,78.00
2022-08-04T08:30:23.973Z,77.20
2022-08-04T08:32:50.788Z,76.60
2022-08-04T08:35:17.877Z,76.10
2022-08-04T08:37:51.628Z,75.80
2022-08-04T08:40:18.451Z,75.60
2022-08-04T08:44:00.556Z,75.60
2022-08-04T08:46:48.957Z,75.90
2022-08-04T08:50:01.787Z,76.20
2022-08-04T08:53:01.199Z,76.40
2022-08-04T08:55:38.899Z,76.60
2022-08-04T08:58:05.538Z,76.60
2022-08-04T09:00:47.306Z,76.60
2022-08-04T09:03:23.260Z,76.70
2022-08-04T09:05:57.729Z,76.60
2022-08-04T09:08:27.199Z,76.70
2022-08-04T09:11:03.523Z,76.70
2022-08-04T09:13:34.174Z,76.70
2022-08-04T09:16:22.178Z,76.70
2022-08-04T09:19:38.041Z,76.50
2022-08-04T09:22:01.817Z,76.30
2022-08-04T09:24:40.608Z,76.30
2022-08-04T09:27:15.716Z,76.40
2022-08-04T09:29:56.387Z,76.10
2022-08-04T09:32:26.196Z,76.00
2022-08-04T09:35:07.356Z,77.50
2022-08-04T09:37:58.998Z,76.60
2022-08-04T09:40:53.202Z,76.20
2022-08-04T09:43:57.039Z,76.10
2022-08-04T09:46:35.033Z,76.30
2022-08-04T09:49:16.586Z,76.50
2022-08-04T09:51:58.086Z,76.40
2022-08-04T09:54:38.466Z,76.40
2022-08-04T09:57:24.245Z,76.40
2022-08-04T09:59:57.341Z,76.50
2022-08-04T10:02:24.780Z,76.90
2022-08-04T10:04:53.260Z,76.40
2022-08-04T10:07:41.748Z,76.40
2022-08-04T10:10:14.599Z,76.20
2022-08-04T10:12:50.443Z,76.30
2022-08-04T10:15:19.511Z,76.30
2022-08-04T10:17:52.623Z,76.50
2022-08-04T10:20:46.040Z,76.50
2022-08-04T10:23:20.366Z,76.30
2022-08-04T10:26:08.587Z,76.40
2022-08-04T10:28:55.574Z,76.00
2022-08-04T10:31:28.116Z,76.20
2022-08-04T10:34:00.659Z,76.00
2022-08-04T10:36:33.048Z,76.10
2022-08-04T10:39:07.752Z,76.10
2022-08-04T10:41:59.623Z,76.10
2022-08-04T10:44:42.277Z,76.00
2022-08-04T10:47:13.462Z,75.80
2022-08-04T10:49:46.175Z,76.10
2022-08-04T10:52:20.869Z,76.30
2022-08-04T10:54:51.633Z,76.20
2022-08-04T10:57:18.283Z,76.30
2022-08-04T11:00:00.471Z,76.20
2022-08-04T11:02:50.281Z,76.30
2022-08-04T11:05:43.878Z,76.30
2022-08-04T11:08:26.358Z,76.40
2022-08-04T11:11:11.778Z,76.40
2022-08-04T11:13:46.781Z,76.50
2022-08-04T11:16:17.504Z,76.50
2022-08-04T11:18:44.162Z,76.60
2022-08-04T11:21:12.803Z,76.60
2022-08-04T11:23:44.644Z,76.70
2022-08-04T11:26:22.014Z,76.60
2022-08-04T11:29:04.700Z,76.70
2022-08-04T11:31:32.590Z,76.70
2022-08-04T11:34:08.299Z,76.60
2022-08-04T11:36:46.963Z,76.70
2022-08-04T11:39:28.778Z,76.70
2022-08-04T11:42:01.660Z,76.70
2022-08-04T11:44:48.166Z,76.80
2022-08-04T11:47:35.110Z,76.90
2022-08-04T11:50:04.765Z,76.90
2022-08-04T11:52:32.626Z,76.90
2022-08-04T11:55:02.581Z,76.80
2022-08-04T11:57:35.719Z,76.90
2022-08-04T12:00:07.442Z,76.80
2022-08-04T12:02:53.302Z,76.80
2022-08-04T12:05:35.870Z,76.70
2022-08-04T12:08:23.103Z,76.70
2022-08-04T12:11:02.676Z,76.80
2022-08-04T12:13:40.835Z,76.90
2022-08-04T12:16:10.750Z,76.80
2022-08-04T12:18:45.634Z,76.80
2022-08-04T12:21:18.725Z,76.80
2022-08-04T12:23:49.479Z,76.80
2022-08-04T12:26:27.155Z,76.90
2022-08-04T12:29:13.552Z,76.90
2022-08-04T12:31:45.961Z,77.00
2022-08-04T12:34:18.699Z,77.00
2022-08-04T12:36:55.672Z,77.00
2022-08-04T12:39:23.287Z,77.00
2022-08-04T12:41:58.473Z,76.70
2022-08-04T12:44:37.523Z,77.40
2022-08-04T12:47:27.132Z,76.80
2022-08-04T12:50:00.862Z,76.80
2022-08-04T12:52:51.810Z,76.90
2022-08-04T12:55:15.505Z,77.00
2022-08-04T12:57:42.702Z,77.10
2022-08-04T13:00:10.378Z,77.50
2022-08-04T13:02:41.453Z,77.10
2022-08-04T13:05:09.270Z,77.10
2022-08-04T13:07:38.334Z,77.00
2022-08-04T13:10:18.268Z,77.00
2022-08-04T13:12:52.938Z,77.00
2022-08-04T13:15:21.977Z,76.90
2022-08-04T13:17:48.996Z,77.00
2022-08-04T13:20:16.030Z,77.00
2022-08-04T13:22:46.540Z,77.10
2022-08-04T13:26:40.656Z,77.10
2022-08-04T13:28:02.236Z,77.10
2022-08-04T13:30:32.168Z,77.10
2022-08-04T13:33:00.296Z,77.10
2022-08-04T13:35:55.717Z,77.40
2022-08-04T13:38:14.934Z,77.30
2022-08-04T13:40:42.645Z,77.20
2022-08-04T13:44:16.727Z,77.30
2022-08-04T13:46:04.233Z,77.20
2022-08-04T13:48:36.130Z,77.50
2022-08-04T13:51:06.430Z,77.50
2022-08-04T13:53:34.067Z,77.20
2022-08-04T13:56:01.493Z,77.10
2022-08-04T13:58:30.786Z,77.10
2022-08-04T14:01:02.647Z,77.10
2022-08-04T14:03:32.490Z,77.20
2022-08-04T14:06:10.517Z,77.20
2022-08-04T14:08:45.679Z,77.10
2022-08-04T14:12:10.703Z,76.90
2022-08-04T14:14:00.089Z,77.10
2022-08-04T14:16:26.819Z,76.90
2022-08-04T14:19:01.371Z,76.20
2022-08-04T14:21:28.395Z,76.70
2022-08-04T14:23:56.109Z,76.90
2022-08-04T14:26:32.346Z,76.90
2022-08-04T14:29:27.629Z,76.70
2022-08-04T14:32:03.230Z,76.20
2022-08-04T14:34:38.275Z,76.50
2022-08-04T14:37:18.318Z,76.50
2022-08-04T14:40:18.028Z,76.60
2022-08-04T14:42:44.689Z,76.50
2022-08-04T14:45:28.872Z,76.50
2022-08-04T14:47:55.631Z,76.50
2022-08-04T14:50:33.189Z,76.60
2022-08-04T14:53:10.058Z,76.60
2022-08-04T14:55:37.589Z,76.50
2022-08-04T14:58:34.168Z,76.60
2022-08-04T15:00:53.223Z,76.70
2022-08-04T15:03:21.766Z,76.20
2022-08-04T15:06:00.457Z,76.30
2022-08-04T15:08:31.526Z,76.10
2022-08-04T15:11:03.256Z,76.20
2022-08-04T15:13:33.446Z,76.30
2022-08-04T15:16:06.177Z,76.20
2022-08-04T15:18:34.818Z,76.40
2022-08-04T15:21:02.680Z,76.40
2022-08-04T15:23:38.911Z,76.30
2022-08-04T15:26:07.633Z,76.60
2022-08-04T15:28:35.792Z,76.50
2022-08-04T15:31:04.154Z,76.50
2022-08-04T15:33:34.053Z,76.60
2022-08-04T15:36:15.460Z,76.40
2022-08-04T15:38:51.683Z,76.40
2022-08-04T15:41:40.393Z,76.00
2022-08-04T15:44:28.208Z,76.10
2022-08-04T15:47:00.678Z,76.30
2022-08-04T15:49:27.402Z,76.30
2022-08-04T15:52:22.948Z,76.30
2022-08-04T15:54:52.368Z,76.30
2022-08-04T15:57:39.707Z,76.30
2022-08-04T16:00:11.300Z,76.50
2022-08-04T16:02:43.685Z,76.50
2022-08-04T16:05:18.594Z,76.50
2022-08-04T16:08:14.715Z,76.60
2022-08-04T16:10:43.338Z,76.60
2022-08-04T16:13:13.872Z,76.60
2022-08-04T16:15:45.663Z,76.50
2022-08-04T16:18:26.492Z,76.70
2022-08-04T16:20:57.794Z,76.00
2022-08-04T16:23:52.373Z,76.60
2022-08-04T16:26:13.940Z,76.60
2022-08-04T16:28:57.235Z,76.70
2022-08-04T16:31:23.964Z,76.90
2022-08-04T16:34:32.321Z,76.80
2022-08-04T16:37:01.020Z,76.70
2022-08-04T16:39:28.013Z,76.70
2022-08-04T16:41:54.794Z,76.70
2022-08-04T16:44:52.757Z,76.70
2022-08-04T16:47:40.176Z,76.80
2022-08-04T16:50:07.867Z,76.70
2022-08-04T16:52:41.912Z,76.90
2022-08-04T16:55:08.722Z,76.80
2022-08-04T16:57:38.774Z,76.90
2022-08-04T17:00:05.946Z,76.70
2022-08-04T17:02:32.882Z,76.80
2022-08-04T17:05:07.238Z,76.70
2022-08-04T17:08:07.217Z,76.80
2022-08-04T17:10:41.981Z,76.90
2022-08-04T17:14:02.674Z,76.70
2022-08-04T17:16:18.035Z,76.80
2022-08-04T17:18:49.233Z,77.20
2022-08-04T17:21:19.868Z,76.80
2022-08-04T17:24:16.113Z,76.80
2022-08-04T17:26:39.996Z,76.90
2022-08-04T17:29:08.594Z,76.90
2022-08-04T17:31:36.875Z,77.00
2022-08-04T17:34:15.539Z,77.00
2022-08-04T17:36:43.802Z,76.80
2022-08-04T17:39:17.256Z,76.80
2022-08-04T17:41:49.031Z,77.10
2022-08-04T17:44:16.756Z,77.10
2022-08-04T17:46:48.023Z,76.80
2022-08-04T17:49:18.101Z,76.80
2022-08-04T17:52:05.637Z,76.90
2022-08-04T17:54:37.147Z,76.80
2022-08-04T17:57:20.083Z,77.00
2022-08-04T18:02:38.185Z,76.90
2022-08-04T18:05:10.440Z,76.80
2022-08-04T18:08:39.535Z,76.90
2022-08-04T18:10:51.828Z,76.80
2022-08-04T18:13:23.872Z,77.00
2022-08-04T18:15:51.278Z,76.90
2022-08-04T18:18:23.528Z,77.20
2022-08-04T18:20:50.644Z,77.00
2022-08-04T18:23:17.542Z,77.20
2022-08-04T18:25:51.588Z,77.10
2022-08-04T18:28:26.645Z,77.10
2022-08-04T18:30:55.337Z,77.10
2022-08-04T18:33:39.703Z,77.20
2022-08-04T18:36:33.808Z,77.30
2022-08-04T18:38:58.774Z,77.30
2022-08-04T18:41:28.793Z,77.30
2022-08-04T18:44:15.431Z,77.30
2022-08-04T18:46:53.012Z,77.30
2022-08-04T18:51:00.230Z,77.60
2022-08-04T18:52:14.938Z,77.40
2022-08-04T18:54:42.732Z,77.40
2022-08-04T18:59:56.530Z,77.80
2022-08-04T19:02:26.467Z,77.70
2022-08-04T19:04:53.314Z,77.90
2022-08-04T19:07:26.597Z,78.00
2022-08-04T19:09:57.794Z,78.00
2022-08-04T19:12:28.207Z,78.00
2022-08-04T19:15:08.689Z,78.00
2022-08-04T19:17:53.583Z,78.00
2022-08-04T19:20:26.550Z,78.20
2022-08-04T19:24:10.811Z,78.20
2022-08-04T19:26:01.711Z,78.30
2022-08-04T19:28:29.990Z,78.30
2022-08-04T19:31:01.496Z,78.30
2022-08-04T19:33:28.575Z,78.40
2022-08-04T19:36:17.345Z,78.20
2022-08-04T19:38:44.742Z,78.20
2022-08-04T19:41:14.475Z,78.40
2022-08-04T19:43:44.016Z,77.90
2022-08-04T19:46:12.232Z,78.00
2022-08-04T19:48:39.562Z,77.50
2022-08-04T19:51:07.754Z,77.10
2022-08-04T19:53:37.398Z,77.00
2022-08-04T19:56:05.382Z,76.90
2022-08-04T19:58:32.061Z,77.00
2022-08-04T20:00:58.816Z,76.90
2022-08-04T20:04:10.293Z,76.90
2022-08-04T20:06:12.372Z,76.80
2022-08-04T20:08:39.065Z,76.80
2022-08-04T20:11:16.384Z,76.80
2022-08-04T20:13:44.020Z,76.70
2022-08-04T20:16:28.998Z,76.60
2022-08-04T20:19:02.693Z,76.60
2022-08-04T20:21:36.710Z,76.60
2022-08-04T20:24:40.299Z,76.50
2022-08-04T20:27:15.620Z,76.50
2022-08-04T20:29:49.512Z,76.50
2022-08-04T20:32:19.616Z,76.50
2022-08-04T20:34:47.502Z,76.50
2022-08-04T20:37:15.484Z,76.60
2022-08-04T20:39:42.393Z,76.60
2022-08-04T20:42:11.502Z,77.20
2022-08-04T20:44:42.212Z,76.50
2022-08-04T20:47:13.239Z,76.70
2022-08-04T20:49:40.777Z,76.70
2022-08-04T20:52:16.402Z,76.70
2022-08-04T20:54:48.675Z,76.70
2022-08-04T20:57:16.746Z,76.60
2022-08-04T20:59:59.660Z,76.80
2022-08-04T21:02:27.167Z,76.80
2022-08-04T21:04:53.993Z,76.70
2022-08-04T21:07:22.284Z,76.70
2022-08-04T21:09:51.026Z,76.70
2022-08-04T21:12:26.897Z,76.70
2022-08-04T21:14:56.905Z,76.90
2022-08-04T21:17:58.561Z,76.70
2022-08-04T21:20:12.916Z,76.70
2022-08-04T21:22:40.211Z,76.80
2022-08-04T21:25:07.705Z,76.80
2022-08-04T21:27:42.608Z,76.80
2022-08-04T21:30:09.814Z,76.80
2022-08-04T21:32:51.013Z,76.90
2022-08-04T21:35:18.989Z,77.00
2022-08-04T21:37:57.716Z,77.00
2022-08-04T21:40:37.888Z,76.90
2022-08-04T21:43:05.669Z,76.90
2022-08-04T21:45:36.430Z,76.80
2022-08-04T21:48:04.763Z,76.80
2022-08-04T21:50:31.668Z,76.90
2022-08-04T21:52:58.968Z,76.80
2022-08-04T21:56:05.429Z,76.80
2022-08-04T21:58:13.449Z,76.80
2022-08-04T22:00:40.470Z,76.70
2022-08-04T22:03:16.645Z,76.80
2022-08-04T22:05:55.747Z,76.70
2022-08-04T22:08:23.608Z,76.90
2022-08-04T22:10:56.347Z,76.80
2022-08-04T22:13:24.689Z,76.80
2022-08-04T22:16:11.333Z,76.90
2022-08-04T22:18:38.175Z,77.00
2022-08-04T22:21:11.798Z,77.00
2022-08-04T22:23:45.853Z,77.00
2022-08-04T22:26:14.535Z,77.20
2022-08-04T22:28:46.832Z,77.10
2022-08-04T22:31:23.694Z,77.10
2022-08-04T22:33:55.141Z,77.10
2022-08-04T22:36:24.978Z,77.20
2022-08-04T22:39:01.660Z,77.20
2022-08-04T22:41:34.016Z,77.30
2022-08-04T22:44:16.058Z,77.50
2022-08-04T22:46:42.953Z,77.20
2022-08-04T22:49:09.632Z,76.60
2022-08-04T22:51:36.286Z,77.30
2022-08-04T22:54:12.259Z,77.30
2022-08-04T22:56:39.443Z,77.30
2022-08-04T22:59:06.896Z,77.40
2022-08-04T23:02:01.249Z,77.40
2022-08-04T23:04:24.503Z,77.50
2022-08-04T23:06:54.221Z,77.60
2022-08-04T23:09:22.131Z,77.60
2022-08-04T23:12:26.273Z,77.70
2022-08-04T23:14:54.744Z,77.60
2022-08-04T23:17:22.192Z,77.70
2022-08-04T23:19:58.260Z,77.60
2022-08-04T23:22:41.541Z,77.80
2022-08-04T23:25:16.144Z,77.80
2022-08-04T23:27:51.304Z,77.80
2022-08-04T23:30:24.831Z,77.80
2022-08-04T23:32:56.723Z,78.00
2022-08-04T23:35:23.636Z,77.90
2022-08-04T23:37:57.570Z,77.80
2022-08-04T23:40:29.999Z,77.80
2022-08-04T23:43:00.678Z,77.90
2022-08-04T23:46:04.228Z,78.00
2022-08-04T23:48:20.864Z,78.00
2022-08-04T23:50:48.001Z,77.90
2022-08-04T23:53:18.538Z,77.80
2022-08-04T23:55:49.437Z,77.80
2022-08-04T23:58:18.553Z,78.00
